createdAt,value
2022-08-23T00:00:12.981Z,12.1
2022-08-23T00:01:10.392Z,12.05
2022-08-23T00:02:23.173Z,12.1
2022-08-23T00:03:10.452Z,12.1
2022-08-23T00:04:11.625Z,12.09
2022-08-23T00:05:10.424Z,12.11
2022-08-23T00:06:10.675Z,12.08
2022-08-23T00:07:10.380Z,12.17
2022-08-23T00:08:10.385Z,12.19
2022-08-23T00:09:10.424Z,12.12
2022-08-23T00:10:10.407Z,11.95
2022-08-23T00:11:10.395Z,12
2022-08-23T00:12:10.393Z,12.08
2022-08-23T00:13:10.394Z,12.15
2022-08-23T00:14:10.487Z,12.12
2022-08-23T00:15:10.410Z,12.2
2022-08-23T00:16:10.498Z,12.22
2022-08-23T00:17:10.399Z,12.29
2022-08-23T00:18:10.390Z,12.24
2022-08-23T00:19:10.407Z,12.26
2022-08-23T00:20:10.430Z,12.3
2022-08-23T00:21:10.466Z,12.3
2022-08-23T00:22:10.400Z,12.23
2022-08-23T00:23:10.425Z,12.25
2022-08-23T00:24:10.401Z,12.25
2022-08-23T00:25:10.405Z,12.31
2022-08-23T00:26:10.403Z,12.46
2022-08-23T00:27:10.468Z,12.53
2022-08-23T00:28:14.745Z,12.53
2022-08-23T00:29:10.410Z,12.5
2022-08-23T00:30:10.450Z,12.53
2022-08-23T00:31:10.412Z,12.51
2022-08-23T00:32:10.506Z,12.61
2022-08-23T00:33:10.429Z,12.59
2022-08-23T00:34:10.405Z,12.44
2022-08-23T00:35:10.466Z,12.55
2022-08-23T00:36:10.437Z,12.5
2022-08-23T00:37:10.428Z,12.57
2022-08-23T00:38:32.296Z,12.66
2022-08-23T00:39:10.456Z,12.61
2022-08-23T00:40:10.476Z,12.61
2022-08-23T00:41:10.457Z,12.52
2022-08-23T00:42:10.398Z,12.52
2022-08-23T00:43:10.408Z,12.55
2022-08-23T00:44:10.418Z,12.39
2022-08-23T00:45:10.408Z,12.41
2022-08-23T00:46:10.404Z,12.46
2022-08-23T00:47:10.411Z,12.59
2022-08-23T00:48:10.421Z,12.48
2022-08-23T00:49:10.418Z,12.41
2022-08-23T00:50:23.912Z,12.52
2022-08-23T00:51:10.432Z,12.54
2022-08-23T00:52:10.406Z,12.59
2022-08-23T00:53:10.401Z,12.5
2022-08-23T00:54:10.431Z,12.43
2022-08-23T00:55:10.402Z,12.43
2022-08-23T00:56:10.477Z,12.33
2022-08-23T00:57:10.430Z,12.39
2022-08-23T00:58:10.431Z,12.33
2022-08-23T00:59:10.416Z,12.37
2022-08-23T01:00:10.420Z,12.3
2022-08-23T01:01:10.401Z,12.32
2022-08-23T01:02:10.518Z,12.37
2022-08-23T01:03:10.488Z,12.28
2022-08-23T01:04:10.504Z,12.24
2022-08-23T01:05:10.430Z,12.3
2022-08-23T01:06:10.402Z,12.32
2022-08-23T01:07:10.408Z,12.3
2022-08-23T01:08:10.543Z,12.33
2022-08-23T01:09:10.586Z,12.37
2022-08-23T01:10:10.414Z,12.37
2022-08-23T01:11:10.418Z,12.41
2022-08-23T01:12:10.447Z,12.37
2022-08-23T01:13:10.418Z,12.41
2022-08-23T01:14:10.475Z,12.36
2022-08-23T01:15:10.419Z,12.44
2022-08-23T01:16:10.424Z,12.46
2022-08-23T01:17:10.415Z,12.36
2022-08-23T01:18:10.429Z,12.41
2022-08-23T01:19:10.449Z,12.41
2022-08-23T01:20:10.457Z,12.41
2022-08-23T01:21:10.742Z,12.48
2022-08-23T01:22:10.424Z,12.44
2022-08-23T01:23:10.481Z,12.48
2022-08-23T01:24:10.486Z,12.5
2022-08-23T01:25:10.417Z,12.5
2022-08-23T01:26:10.460Z,12.51
2022-08-23T01:27:10.441Z,12.46
2022-08-23T01:28:10.434Z,12.5
2022-08-23T01:29:10.419Z,12.43
2022-08-23T01:30:10.427Z,12.57
2022-08-23T01:31:10.416Z,12.53
2022-08-23T01:32:10.413Z,12.51
2022-08-23T01:33:10.448Z,12.41
2022-08-23T01:34:10.490Z,12.48
2022-08-23T01:35:10.464Z,12.51
2022-08-23T01:36:10.409Z,12.62
2022-08-23T01:37:10.410Z,12.5
2022-08-23T01:38:10.518Z,12.41
2022-08-23T01:39:10.421Z,12.39
2022-08-23T01:40:10.500Z,12.42
2022-08-23T01:41:10.410Z,12.42
2022-08-23T01:42:10.414Z,12.41
2022-08-23T01:43:10.445Z,12.42
2022-08-23T01:44:10.461Z,12.46
2022-08-23T01:45:10.486Z,12.4
2022-08-23T01:46:10.437Z,12.46
2022-08-23T01:47:10.436Z,12.4
2022-08-23T01:48:10.417Z,12.37
2022-08-23T01:49:10.423Z,12.42
2022-08-23T01:50:10.431Z,12.3
2022-08-23T01:51:10.417Z,12.36
2022-08-23T01:52:10.412Z,12.38
2022-08-23T01:53:10.425Z,12.34
2022-08-23T01:54:10.446Z,12.36
2022-08-23T01:55:10.531Z,12.28
2022-08-23T01:56:10.447Z,12.31
2022-08-23T01:57:10.419Z,12.31
2022-08-23T01:58:10.415Z,12.21
2022-08-23T01:59:10.417Z,12.14
2022-08-23T02:00:10.454Z,12.04
2022-08-23T02:01:10.451Z,11.98
2022-08-23T02:02:10.432Z,11.98
2022-08-23T02:03:10.437Z,11.93
2022-08-23T02:04:10.410Z,12.02
2022-08-23T02:05:10.416Z,11.93
2022-08-23T02:06:10.417Z,11.91
2022-08-23T02:07:10.422Z,11.91
2022-08-23T02:08:10.449Z,11.86
2022-08-23T02:09:17.334Z,11.88
2022-08-23T02:10:10.415Z,11.86
2022-08-23T02:11:10.414Z,11.83
2022-08-23T02:12:10.433Z,11.76
2022-08-23T02:13:10.493Z,11.79
2022-08-23T02:14:10.425Z,11.79
2022-08-23T02:15:10.462Z,11.67
2022-08-23T02:16:10.422Z,11.67
2022-08-23T02:17:10.448Z,11.69
2022-08-23T02:18:10.421Z,11.6
2022-08-23T02:19:10.422Z,11.6
2022-08-23T02:20:10.478Z,11.62
2022-08-23T02:21:10.580Z,11.58
2022-08-23T02:22:10.484Z,11.58
2022-08-23T02:23:10.508Z,11.6
2022-08-23T02:24:10.429Z,11.63
2022-08-23T02:25:10.455Z,11.65
2022-08-23T02:26:10.527Z,11.69
2022-08-23T02:27:10.490Z,11.7
2022-08-23T02:28:10.577Z,11.76
2022-08-23T02:29:10.623Z,11.69
2022-08-23T02:30:10.467Z,11.76
2022-08-23T02:31:11.410Z,11.62
2022-08-23T02:32:10.908Z,11.65
2022-08-23T02:33:10.951Z,11.65
2022-08-23T02:35:10.467Z,11.67
2022-08-23T02:36:10.547Z,11.67
2022-08-23T02:37:10.455Z,11.74
2022-08-23T02:38:10.460Z,11.77
2022-08-23T02:39:10.473Z,11.77
2022-08-23T02:40:10.634Z,11.77
2022-08-23T02:41:10.545Z,11.79
2022-08-23T02:42:11.884Z,11.89
2022-08-23T02:43:10.516Z,11.87
2022-08-23T02:44:10.462Z,11.89
2022-08-23T02:45:10.570Z,11.94
2022-08-23T02:46:10.463Z,11.95
2022-08-23T02:47:10.482Z,12.07
2022-08-23T02:48:10.581Z,11.95
2022-08-23T02:49:10.498Z,11.85
2022-08-23T02:50:10.625Z,11.88
2022-08-23T02:51:10.467Z,11.95
2022-08-23T02:52:10.507Z,11.93
2022-08-23T02:53:10.479Z,11.88
2022-08-23T02:54:10.480Z,11.88
2022-08-23T02:55:10.465Z,11.82
2022-08-23T02:56:17.027Z,11.75
2022-08-23T02:57:10.493Z,11.62
2022-08-23T02:58:10.551Z,11.6
2022-08-23T02:59:10.582Z,11.64
2022-08-23T03:00:10.486Z,11.52
2022-08-23T03:01:10.569Z,11.52
2022-08-23T03:02:10.620Z,11.35
2022-08-23T03:03:10.476Z,11.4
2022-08-23T03:04:10.589Z,11.43
2022-08-23T03:05:10.468Z,11.3
2022-08-23T03:06:25.303Z,11.31
2022-08-23T03:07:10.471Z,11.23
2022-08-23T03:08:10.507Z,11.18
2022-08-23T03:09:10.528Z,11.16
2022-08-23T03:10:10.465Z,11.14
2022-08-23T03:11:10.523Z,11.14
2022-08-23T03:12:10.463Z,11.18
2022-08-23T03:13:10.476Z,11.11
2022-08-23T03:14:10.570Z,11.08
2022-08-23T03:15:10.552Z,11.13
2022-08-23T03:16:10.549Z,11.1
2022-08-23T03:17:10.461Z,11.15
2022-08-23T03:18:10.494Z,11.13
2022-08-23T03:19:10.466Z,11.05
2022-08-23T03:20:10.473Z,11.1
2022-08-23T03:21:10.507Z,11.07
2022-08-23T03:22:10.496Z,11.08
2022-08-23T03:23:10.500Z,11.1
2022-08-23T03:24:10.642Z,11.13
2022-08-23T03:25:10.641Z,11.08
2022-08-23T03:26:10.819Z,11.13
2022-08-23T03:27:10.504Z,11.13
2022-08-23T03:28:10.519Z,11.13
2022-08-23T03:29:10.561Z,11.06
2022-08-23T03:30:17.825Z,10.98
2022-08-23T03:31:10.527Z,10.88
2022-08-23T03:32:10.606Z,10.91
2022-08-23T03:33:10.622Z,10.92
2022-08-23T03:34:10.495Z,11
2022-08-23T03:35:14.926Z,10.9
2022-08-23T03:36:10.465Z,10.87
2022-08-23T03:37:10.574Z,10.93
2022-08-23T03:38:10.543Z,10.97
2022-08-23T03:39:10.532Z,10.93
2022-08-23T03:40:10.547Z,10.93
2022-08-23T03:41:10.473Z,10.92
2022-08-23T03:42:10.490Z,10.79
2022-08-23T03:43:10.455Z,10.92
2022-08-23T03:44:10.449Z,10.8
2022-08-23T03:45:10.446Z,10.87
2022-08-23T03:46:10.568Z,10.75
2022-08-23T03:47:10.434Z,10.8
2022-08-23T03:48:10.444Z,10.82
2022-08-23T03:49:10.460Z,10.83
2022-08-23T03:50:10.454Z,10.87
2022-08-23T03:51:10.488Z,10.82
2022-08-23T03:52:10.462Z,10.87
2022-08-23T03:53:12.144Z,10.9
2022-08-23T03:54:10.468Z,10.89
2022-08-23T03:55:10.460Z,10.86
2022-08-23T03:56:10.439Z,10.97
2022-08-23T03:57:10.533Z,10.9
2022-08-23T03:58:10.551Z,10.95
2022-08-23T03:59:10.456Z,10.95
2022-08-23T04:00:10.505Z,10.87
2022-08-23T04:01:10.448Z,10.86
2022-08-23T04:02:10.521Z,10.87
2022-08-23T04:03:10.442Z,10.94
2022-08-23T04:04:10.450Z,10.87
2022-08-23T04:05:10.457Z,11
2022-08-23T04:06:10.552Z,11
2022-08-23T04:07:10.490Z,11
2022-08-23T04:08:10.449Z,10.92
2022-08-23T04:09:10.451Z,10.95
2022-08-23T04:10:10.442Z,10.94
2022-08-23T04:11:10.452Z,10.89
2022-08-23T04:12:12.011Z,10.99
2022-08-23T04:13:10.467Z,10.95
2022-08-23T04:14:10.481Z,10.94
2022-08-23T04:15:10.458Z,11.02
2022-08-23T04:16:10.502Z,11.02
2022-08-23T04:17:10.654Z,10.97
2022-08-23T04:18:10.476Z,11.1
2022-08-23T04:19:10.527Z,11.05
2022-08-23T04:20:10.444Z,11.1
2022-08-23T04:21:10.545Z,11.07
2022-08-23T04:22:10.673Z,11.04
2022-08-23T04:23:10.448Z,11.15
2022-08-23T04:24:10.480Z,11.04
2022-08-23T04:25:33.646Z,11.08
2022-08-23T04:26:10.459Z,11.05
2022-08-23T04:27:10.767Z,11.13
2022-08-23T04:28:10.486Z,11.1
2022-08-23T04:29:10.491Z,11.1
2022-08-23T04:30:10.700Z,11.05
2022-08-23T04:31:10.449Z,11.04
2022-08-23T04:32:11.752Z,10.94
2022-08-23T04:33:12.571Z,11.07
2022-08-23T04:34:10.471Z,11.13
2022-08-23T04:35:10.489Z,11.16
2022-08-23T04:36:10.533Z,11.16
2022-08-23T04:37:10.728Z,11.12
2022-08-23T04:38:18.309Z,11.1
2022-08-23T04:39:10.459Z,11.08
2022-08-23T04:40:10.523Z,11.13
2022-08-23T04:41:11.172Z,11.19
2022-08-23T04:42:14.670Z,11.15
2022-08-23T04:43:10.471Z,11.08
2022-08-23T04:44:10.447Z,11.1
2022-08-23T04:45:10.475Z,11.13
2022-08-23T04:46:10.459Z,11.23
2022-08-23T04:47:10.645Z,11.11
2022-08-23T04:48:12.075Z,11.16
2022-08-23T04:49:10.522Z,11.15
2022-08-23T04:50:10.453Z,11.12
2022-08-23T04:51:10.468Z,11.26
2022-08-23T04:52:10.869Z,11.21
2022-08-23T04:53:10.473Z,11.13
2022-08-23T04:54:10.458Z,11.11
2022-08-23T04:55:10.456Z,11.13
2022-08-23T04:56:10.511Z,11.13
2022-08-23T04:57:10.906Z,11.1
2022-08-23T04:58:10.466Z,11.05
2022-08-23T04:59:13.131Z,11.1
2022-08-23T05:00:10.466Z,11.21
2022-08-23T05:01:10.507Z,11.18
2022-08-23T05:02:10.500Z,11.13
2022-08-23T05:03:10.490Z,11.15
2022-08-23T05:04:10.461Z,11.07
2022-08-23T05:05:10.496Z,11.05
2022-08-23T05:06:10.457Z,11.13
2022-08-23T05:07:10.532Z,11.07
2022-08-23T05:08:10.561Z,11.08
2022-08-23T05:09:10.478Z,11.18
2022-08-23T05:10:10.500Z,11.12
2022-08-23T05:11:10.575Z,11.1
2022-08-23T05:12:10.482Z,11.09
2022-08-23T05:13:10.472Z,11.1
2022-08-23T05:14:10.472Z,11.08
2022-08-23T05:15:10.470Z,10.9
2022-08-23T05:16:10.458Z,10.77
2022-08-23T05:17:10.596Z,10.85
2022-08-23T05:18:10.495Z,10.78
2022-08-23T05:19:10.464Z,10.79
2022-08-23T05:20:10.469Z,10.88
2022-08-23T05:21:10.496Z,10.79
2022-08-23T05:22:12.141Z,10.79
2022-08-23T05:23:10.467Z,10.74
2022-08-23T05:24:13.689Z,10.76
2022-08-23T05:25:10.475Z,10.83
2022-08-23T05:26:10.484Z,10.84
2022-08-23T05:27:13.481Z,10.83
2022-08-23T05:28:10.478Z,10.91
2022-08-23T05:29:10.483Z,10.86
2022-08-23T05:30:14.429Z,10.87
2022-08-23T05:31:11.764Z,10.86
2022-08-23T05:32:10.488Z,10.86
2022-08-23T05:33:10.462Z,10.87
2022-08-23T05:34:10.484Z,10.89
2022-08-23T05:35:10.466Z,10.86
2022-08-23T05:36:10.608Z,10.85
2022-08-23T05:37:10.477Z,10.8
2022-08-23T05:38:10.507Z,10.88
2022-08-23T05:39:10.480Z,10.8
2022-08-23T05:40:10.589Z,10.79
2022-08-23T05:41:10.536Z,10.86
2022-08-23T05:42:10.469Z,10.95
2022-08-23T05:43:10.512Z,11
2022-08-23T05:44:10.492Z,10.94
2022-08-23T05:45:10.517Z,10.94
2022-08-23T05:46:13.036Z,10.82
2022-08-23T05:47:11.509Z,10.85
2022-08-23T05:48:10.468Z,10.9
2022-08-23T05:49:10.478Z,11.06
2022-08-23T05:50:10.480Z,11.03
2022-08-23T05:51:10.465Z,11.14
2022-08-23T05:52:10.510Z,11
2022-08-23T05:53:10.482Z,11.16
2022-08-23T05:54:10.481Z,11.03
2022-08-23T05:55:10.480Z,11.13
2022-08-23T05:56:10.482Z,11.17
2022-08-23T05:57:10.595Z,11.15
2022-08-23T05:58:10.525Z,11.06
2022-08-23T05:59:12.380Z,11.11
2022-08-23T06:00:10.554Z,11.14
2022-08-23T06:01:10.562Z,11.08
2022-08-23T06:02:10.526Z,11.04
2022-08-23T06:03:10.482Z,11.1
2022-08-23T06:04:10.589Z,11.16
2022-08-23T06:05:10.504Z,11.19
2022-08-23T06:06:10.534Z,11.21
2022-08-23T06:07:10.487Z,11.3
2022-08-23T06:08:10.486Z,11.33
2022-08-23T06:09:10.494Z,11.38
2022-08-23T06:10:16.201Z,11.39
2022-08-23T06:11:10.526Z,11.32
2022-08-23T06:12:10.535Z,11.3
2022-08-23T06:13:10.543Z,11.26
2022-08-23T06:14:10.577Z,11.32
2022-08-23T06:15:10.677Z,11.29
2022-08-23T06:16:14.518Z,11.33
2022-08-23T06:17:10.858Z,11.34
2022-08-23T06:18:10.854Z,11.23
2022-08-23T06:19:10.485Z,11.24
2022-08-23T06:20:10.626Z,11.3
2022-08-23T06:21:10.605Z,11.28
2022-08-23T06:22:10.481Z,11.27
2022-08-23T06:23:11.223Z,11.27
2022-08-23T06:24:10.520Z,11.14
2022-08-23T06:25:10.561Z,11.21
2022-08-23T06:26:10.492Z,11.21
2022-08-23T06:27:10.517Z,11.2
2022-08-23T06:28:10.538Z,11.14
2022-08-23T06:29:10.635Z,11.2
2022-08-23T06:30:11.979Z,11.24
2022-08-23T06:31:10.558Z,11.19
2022-08-23T06:32:10.646Z,11.18
2022-08-23T06:33:10.502Z,11.25
2022-08-23T06:34:10.642Z,11.38
2022-08-23T06:35:33.244Z,11.36
2022-08-23T06:36:10.516Z,11.24
2022-08-23T06:37:10.524Z,11.22
2022-08-23T06:38:10.523Z,11.12
2022-08-23T06:39:10.505Z,10.97
2022-08-23T06:40:10.559Z,11
2022-08-23T06:41:10.512Z,10.96
2022-08-23T06:42:34.884Z,10.94
2022-08-23T06:43:10.502Z,11.06
2022-08-23T06:44:10.489Z,10.96
2022-08-23T06:45:10.548Z,10.9
2022-08-23T06:46:10.494Z,11.12
2022-08-23T06:47:10.487Z,11.17
2022-08-23T06:48:10.678Z,11.07
2022-08-23T06:49:10.794Z,11.1
2022-08-23T06:50:10.609Z,11.08
2022-08-23T06:51:10.491Z,11.01
2022-08-23T06:52:10.503Z,10.93
2022-08-23T06:53:10.512Z,11.01
2022-08-23T06:54:10.518Z,10.99
2022-08-23T06:55:13.596Z,10.99
2022-08-23T06:56:10.512Z,11.06
2022-08-23T06:57:10.527Z,11.14
2022-08-23T06:58:10.488Z,11.05
2022-08-23T06:59:10.568Z,10.91
2022-08-23T07:00:10.593Z,10.93
2022-08-23T07:01:23.503Z,10.98
2022-08-23T07:02:10.663Z,10.97
2022-08-23T07:03:10.565Z,10.99
2022-08-23T07:04:10.514Z,11.15
2022-08-23T07:05:10.525Z,11.08
2022-08-23T07:06:10.511Z,11.04
2022-08-23T07:07:12.008Z,11.1
2022-08-23T07:08:10.506Z,11.12
2022-08-23T07:09:10.522Z,11.1
2022-08-23T07:10:10.613Z,11.2
2022-08-23T07:11:10.502Z,11.27
2022-08-23T07:12:10.505Z,11.19
2022-08-23T07:13:10.524Z,11.19
2022-08-23T07:14:10.605Z,11.13
2022-08-23T07:15:10.496Z,11.25
2022-08-23T07:16:10.655Z,11.28
2022-08-23T07:17:10.603Z,11.24
2022-08-23T07:18:13.480Z,11.11
2022-08-23T07:19:10.500Z,11.05
2022-08-23T07:20:10.513Z,11.03
2022-08-23T07:21:10.593Z,10.98
2022-08-23T07:22:10.513Z,11.11
2022-08-23T07:23:10.541Z,11.11
2022-08-23T07:24:10.497Z,11.07
2022-08-23T07:25:10.538Z,11.07
2022-08-23T07:26:10.512Z,10.98
2022-08-23T07:27:10.502Z,11.09
2022-08-23T07:28:11.826Z,11.17
2022-08-23T07:29:10.490Z,11.13
2022-08-23T07:30:10.545Z,11.13
2022-08-23T07:31:14.713Z,10.98
2022-08-23T07:32:10.615Z,11.15
2022-08-23T07:33:10.495Z,11.09
2022-08-23T07:34:10.504Z,11.07
2022-08-23T07:35:10.514Z,11.09
2022-08-23T07:36:10.612Z,11.05
2022-08-23T07:37:11.576Z,11.11
2022-08-23T07:38:10.501Z,10.96
2022-08-23T07:39:10.496Z,11.15
2022-08-23T07:40:10.563Z,11.15
2022-08-23T07:41:10.501Z,11.22
2022-08-23T07:42:23.787Z,11.37
2022-08-23T07:43:10.516Z,11.11
2022-08-23T07:44:10.622Z,11.07
2022-08-23T07:45:12.947Z,11.26
2022-08-23T07:46:12.562Z,10.85
2022-08-23T07:47:10.500Z,10.84
2022-08-23T07:48:10.494Z,11.03
2022-08-23T07:49:10.571Z,11.07
2022-08-23T07:50:10.504Z,11.19
2022-08-23T07:51:10.553Z,11.13
2022-08-23T07:52:12.122Z,11.08
2022-08-23T07:53:10.498Z,11.14
2022-08-23T07:54:10.501Z,10.98
2022-08-23T07:55:10.505Z,11.13
2022-08-23T07:56:10.506Z,11.24
2022-08-23T07:57:10.503Z,11.25
2022-08-23T07:58:10.527Z,11.16
2022-08-23T07:59:10.501Z,11.13
2022-08-23T08:00:10.510Z,11.04
2022-08-23T08:01:10.502Z,11.04
2022-08-23T08:02:10.606Z,11.09
2022-08-23T08:03:11.275Z,11.15
2022-08-23T08:04:10.544Z,11.19
2022-08-23T08:05:10.541Z,11.04
2022-08-23T08:06:10.512Z,11.19
2022-08-23T08:07:19.359Z,11
2022-08-23T08:08:10.511Z,11.14
2022-08-23T08:09:10.503Z,11.05
2022-08-23T08:10:10.688Z,10.97
2022-08-23T08:11:10.584Z,11
2022-08-23T08:12:10.536Z,10.69
2022-08-23T08:13:10.509Z,10.84
2022-08-23T08:14:10.506Z,11
2022-08-23T08:15:10.610Z,11.15
2022-08-23T08:16:10.597Z,11.2
2022-08-23T08:17:10.515Z,11.23
2022-08-23T08:18:10.512Z,11.19
2022-08-23T08:19:10.532Z,11.03
2022-08-23T08:20:10.522Z,11.36
2022-08-23T08:21:10.545Z,11.15
2022-08-23T08:22:10.525Z,10.98
2022-08-23T08:23:10.515Z,10.9
2022-08-23T08:24:10.582Z,11
2022-08-23T08:25:10.517Z,10.93
2022-08-23T08:26:10.676Z,10.95
2022-08-23T08:27:10.511Z,11.21
2022-08-23T08:28:15.695Z,11.13
2022-08-23T08:29:10.535Z,10.97
2022-08-23T08:30:10.520Z,11.04
2022-08-23T08:31:10.538Z,10.95
2022-08-23T08:32:13.842Z,10.94
2022-08-23T08:33:10.561Z,11
2022-08-23T08:34:10.533Z,11.06
2022-08-23T08:35:10.514Z,11.07
2022-08-23T08:36:10.521Z,11.29
2022-08-23T08:37:10.515Z,11.07
2022-08-23T08:38:10.546Z,11.2
2022-08-23T08:39:10.660Z,11.13
2022-08-23T08:40:10.599Z,11.26
2022-08-23T08:41:10.516Z,11.21
2022-08-23T08:42:10.515Z,11.21
2022-08-23T08:43:10.522Z,11.13
2022-08-23T08:44:13.613Z,10.97
2022-08-23T08:45:10.534Z,10.86
2022-08-23T08:46:10.673Z,11.14
2022-08-23T08:47:10.555Z,11.09
2022-08-23T08:48:13.506Z,11.23
2022-08-23T08:49:10.615Z,11.09
2022-08-23T08:50:10.625Z,11.38
2022-08-23T08:51:10.521Z,11.24
2022-08-23T08:52:10.641Z,11.02
2022-08-23T08:53:10.517Z,11.08
2022-08-23T08:54:10.563Z,11.39
2022-08-23T08:55:10.582Z,11.21
2022-08-23T08:56:10.552Z,11.27
2022-08-23T08:57:10.573Z,11.17
2022-08-23T08:58:10.516Z,11.21
2022-08-23T08:59:10.592Z,11.25
2022-08-23T09:00:10.529Z,11.38
2022-08-23T09:01:10.595Z,11.05
2022-08-23T09:02:32.782Z,11.28
2022-08-23T09:03:10.630Z,11.1
2022-08-23T09:04:10.529Z,10.87
2022-08-23T09:05:10.521Z,11.11
2022-08-23T09:06:11.658Z,11.24
2022-08-23T09:07:10.526Z,11.03
2022-08-23T09:08:10.553Z,10.91
2022-08-23T09:09:10.643Z,11.03
2022-08-23T09:10:10.527Z,11.06
2022-08-23T09:11:10.565Z,10.99
2022-08-23T09:12:10.526Z,10.98
2022-08-23T09:13:11.438Z,10.9
2022-08-23T09:14:10.538Z,10.95
2022-08-23T09:15:10.559Z,10.87
2022-08-23T09:16:10.587Z,10.84
2022-08-23T09:17:10.527Z,11.11
2022-08-23T09:18:10.530Z,11.1
2022-08-23T09:19:10.522Z,10.95
2022-08-23T09:20:10.529Z,11.17
2022-08-23T09:21:10.526Z,11.04
2022-08-23T09:22:10.563Z,11.16
2022-08-23T09:23:10.520Z,11.23
2022-08-23T09:24:10.533Z,11.41
2022-08-23T09:25:10.545Z,11.37
2022-08-23T09:26:10.530Z,11.52
2022-08-23T09:27:10.564Z,11.59
2022-08-23T09:28:10.560Z,11.4
2022-08-23T09:29:10.564Z,11.37
2022-08-23T09:30:10.533Z,11.17
2022-08-23T09:31:10.582Z,11.26
2022-08-23T09:32:12.343Z,11.46
2022-08-23T09:33:10.539Z,11.47
2022-08-23T09:34:10.709Z,11
2022-08-23T09:35:10.531Z,11.3
2022-08-23T09:36:10.565Z,11.42
2022-08-23T09:37:10.546Z,11.07
2022-08-23T09:38:11.378Z,11.15
2022-08-23T09:39:10.534Z,11.51
2022-08-23T09:40:10.581Z,11.42
2022-08-23T09:41:10.538Z,11.42
2022-08-23T09:42:10.531Z,11.25
2022-08-23T09:43:10.567Z,11.2
2022-08-23T09:44:10.561Z,11.31
2022-08-23T09:45:10.532Z,11.22
2022-08-23T09:46:10.576Z,11.27
2022-08-23T09:47:10.531Z,11.43
2022-08-23T09:48:10.525Z,11.71
2022-08-23T09:49:10.549Z,11.84
2022-08-23T09:50:10.595Z,11.63
2022-08-23T09:51:11.198Z,11.25
2022-08-23T09:52:10.554Z,11.11
2022-08-23T09:53:10.537Z,11.62
2022-08-23T09:54:10.544Z,11.71
2022-08-23T09:55:10.527Z,11.4
2022-08-23T09:56:10.532Z,11.25
2022-08-23T09:57:10.574Z,11.36
2022-08-23T09:58:10.709Z,11.31
2022-08-23T09:59:10.750Z,11.39
2022-08-23T10:00:10.865Z,11.45
2022-08-23T10:01:10.831Z,11.42
2022-08-23T10:02:11.026Z,11.38
2022-08-23T10:03:10.762Z,11.4
2022-08-23T10:04:10.614Z,11.37
2022-08-23T10:05:14.789Z,11.25
2022-08-23T10:06:10.546Z,11.2
2022-08-23T10:07:10.553Z,11.12
2022-08-23T10:08:11.013Z,11.2
2022-08-23T10:09:10.675Z,11.22
2022-08-23T10:10:10.555Z,11.18
2022-08-23T10:11:10.636Z,11.24
2022-08-23T10:12:10.547Z,11.45
2022-08-23T10:13:10.548Z,11.2
2022-08-23T10:14:10.550Z,11.07
2022-08-23T10:15:10.564Z,11.34
2022-08-23T10:16:10.711Z,11.62
2022-08-23T10:17:10.543Z,11.73
2022-08-23T10:18:10.581Z,11.54
2022-08-23T10:19:10.549Z,11.28
2022-08-23T10:20:10.539Z,11.43
2022-08-23T10:21:10.555Z,11.53
2022-08-23T10:22:10.558Z,11.62
2022-08-23T10:23:10.545Z,11.08
2022-08-23T10:24:10.552Z,11.47
2022-08-23T10:25:10.586Z,11.2
2022-08-23T10:26:10.630Z,11.35
2022-08-23T10:27:10.558Z,11.41
2022-08-23T10:28:10.555Z,11.42
2022-08-23T10:29:10.657Z,11.11
2022-08-23T10:30:10.547Z,11.2
2022-08-23T10:31:10.581Z,11.53
2022-08-23T10:32:10.582Z,11.2
2022-08-23T10:33:10.547Z,11.08
2022-08-23T10:34:10.561Z,11.05
2022-08-23T10:35:10.551Z,11.11
2022-08-23T10:36:10.542Z,11.11
2022-08-23T10:37:10.574Z,11.23
2022-08-23T10:38:10.611Z,11.29
2022-08-23T10:39:10.582Z,11.2
2022-08-23T10:40:10.635Z,11.05
2022-08-23T10:41:10.554Z,10.99
2022-08-23T10:42:10.637Z,10.7
2022-08-23T10:43:10.565Z,10.73
2022-08-23T10:44:10.635Z,10.64
2022-08-23T10:45:10.569Z,10.7
2022-08-23T10:46:10.680Z,10.67
2022-08-23T10:47:10.573Z,11.05
2022-08-23T10:48:10.567Z,10.82
2022-08-23T10:49:10.555Z,10.7
2022-08-23T10:50:10.579Z,10.52
2022-08-23T10:51:10.564Z,10.67
2022-08-23T10:52:10.560Z,10.92
2022-08-23T10:53:10.696Z,10.76
2022-08-23T10:54:10.572Z,10.67
2022-08-23T10:55:10.568Z,10.81
2022-08-23T10:56:10.571Z,11.23
2022-08-23T10:57:10.635Z,11.08
2022-08-23T10:58:10.589Z,11.14
2022-08-23T10:59:10.561Z,10.96
2022-08-23T11:00:10.652Z,10.66
2022-08-23T11:01:10.592Z,10.39
2022-08-23T11:02:10.578Z,10.55
2022-08-23T11:03:10.580Z,10.4
2022-08-23T11:04:10.571Z,10.55
2022-08-23T11:05:10.629Z,10.14
2022-08-23T11:06:10.578Z,10.17
2022-08-23T11:07:10.596Z,10.27
2022-08-23T11:08:10.562Z,10.64
2022-08-23T11:09:10.556Z,10.7
2022-08-23T11:10:16.251Z,10.6
2022-08-23T11:11:10.611Z,10.57
2022-08-23T11:12:11.135Z,10.64
2022-08-23T11:13:10.574Z,10.58
2022-08-23T11:14:10.604Z,10.61
2022-08-23T11:15:10.582Z,10.61
2022-08-23T11:16:10.602Z,10.64
2022-08-23T11:17:10.583Z,10.61
2022-08-23T11:18:10.564Z,10.7
2022-08-23T11:19:10.664Z,10.64
2022-08-23T11:20:10.561Z,10.34
2022-08-23T11:21:10.599Z,10.28
2022-08-23T11:22:10.579Z,10.37
2022-08-23T11:23:10.573Z,10.34
2022-08-23T11:24:10.599Z,10.55
2022-08-23T11:25:10.573Z,10.48
2022-08-23T11:26:10.640Z,10.45
2022-08-23T11:27:10.612Z,10.45
2022-08-23T11:28:10.717Z,10.6
2022-08-23T11:29:10.565Z,10.93
2022-08-23T11:30:10.618Z,10.61
2022-08-23T11:31:11.789Z,10.58
2022-08-23T11:32:10.573Z,10.47
2022-08-23T11:33:10.574Z,10.59
2022-08-23T11:34:10.593Z,10.55
2022-08-23T11:35:10.621Z,10.74
2022-08-23T11:36:10.577Z,10.83
2022-08-23T11:37:10.672Z,10.66
2022-08-23T11:38:10.711Z,10.7
2022-08-23T11:39:10.588Z,10.54
2022-08-23T11:40:14.795Z,10.46
2022-08-23T11:41:10.581Z,10.77
2022-08-23T11:42:10.606Z,10.85
2022-08-23T11:43:10.576Z,11
2022-08-23T11:44:10.574Z,10.93
2022-08-23T11:45:10.562Z,10.77
2022-08-23T11:46:10.592Z,11.06
2022-08-23T11:47:10.571Z,11.59
2022-08-23T11:48:10.574Z,11.23
2022-08-23T11:49:10.615Z,10.84
2022-08-23T11:50:10.574Z,10.92
2022-08-23T11:51:10.566Z,10.71
2022-08-23T11:52:10.733Z,10.8
2022-08-23T11:53:10.580Z,11.05
2022-08-23T11:54:10.654Z,11.15
2022-08-23T11:55:10.595Z,11.23
2022-08-23T11:56:10.612Z,11.36
2022-08-23T11:57:10.620Z,11.57
2022-08-23T11:58:10.583Z,11.59
2022-08-23T11:59:10.604Z,11.22
2022-08-23T12:00:10.609Z,11.04
2022-08-23T12:01:10.569Z,11.34
2022-08-23T12:02:14.173Z,11.6
2022-08-23T12:03:10.724Z,10.98
2022-08-23T12:04:10.775Z,11.05
2022-08-23T12:05:10.647Z,11.49
2022-08-23T12:06:10.588Z,11.28
2022-08-23T12:07:10.584Z,11.24
2022-08-23T12:08:10.584Z,11.27
2022-08-23T12:09:10.575Z,11.33
2022-08-23T12:10:10.606Z,11.46
2022-08-23T12:11:10.694Z,10.92
2022-08-23T12:12:10.586Z,11.64
2022-08-23T12:13:10.588Z,11.6
2022-08-23T12:14:10.573Z,11.35
2022-08-23T12:15:12.092Z,11.78
2022-08-23T12:16:16.338Z,11.46
2022-08-23T12:17:10.664Z,11.75
2022-08-23T12:18:10.751Z,10.86
2022-08-23T12:19:10.586Z,11
2022-08-23T12:20:16.361Z,11.02
2022-08-23T12:21:10.580Z,11.18
2022-08-23T12:22:10.589Z,10.87
2022-08-23T12:23:10.582Z,10.76
2022-08-23T12:24:10.626Z,11.19
2022-08-23T12:25:10.583Z,11.17
2022-08-23T12:26:10.585Z,11.24
2022-08-23T12:27:10.692Z,10.92
2022-08-23T12:28:10.700Z,11.39
2022-08-23T12:29:10.601Z,11.21
2022-08-23T12:30:10.601Z,11.76
2022-08-23T12:31:13.515Z,11.5
2022-08-23T12:32:10.581Z,11.28
2022-08-23T12:33:10.589Z,11.42
2022-08-23T12:34:10.629Z,11.58
2022-08-23T12:35:10.600Z,11.43
2022-08-23T12:36:15.480Z,11.48
2022-08-23T12:37:10.587Z,11.58
2022-08-23T12:38:10.632Z,11.28
2022-08-23T12:39:10.669Z,11.67
2022-08-23T12:40:10.854Z,11.39
2022-08-23T12:41:10.674Z,11.46
2022-08-23T12:42:10.587Z,10.73
2022-08-23T12:43:10.599Z,10.99
2022-08-23T12:44:10.636Z,11.56
2022-08-23T12:45:10.641Z,11.51
2022-08-23T12:46:10.682Z,11.37
2022-08-23T12:47:10.594Z,11.13
2022-08-23T12:48:10.615Z,11.1
2022-08-23T12:49:13.191Z,10.95
2022-08-23T12:50:10.632Z,10.92
2022-08-23T12:51:10.639Z,11.37
2022-08-23T12:52:10.628Z,11.4
2022-08-23T12:53:10.606Z,11.36
2022-08-23T12:54:10.607Z,10.98
2022-08-23T12:55:10.666Z,10.99
2022-08-23T12:56:10.606Z,11.17
2022-08-23T12:57:10.599Z,11.24
2022-08-23T12:58:10.680Z,11.31